Time;durP1;ratioP1;P1;durP2;ratioP2;P2;SDS_P1;SDS_P2;PMS_P1;PMS_P2;Temp;Humidity;BMP_temperature;BMP_pressure;BME280_temperature;BME280_humidity;BME280_pressure;Samples;Min_cycle;Max_cycle;Signal;HPM_P1;HPM_P2
2021/03/17 00:02:00;;;;;;;21.87;10.40;;;;;;;2.72;72.38;98601.61;1728056;80;21872;-62
2021/03/17 00:04:49;;;;;;;28.03;13.07;;;;;;;2.73;72.41;98592.69;1731406;80;21197;-60
2021/03/17 00:07:35;;;;;;;24.50;12.70;;;;;;;2.74;72.36;98586.46;1728256;80;21166;-60
2021/03/17 00:10:23;;;;;;;29.37;15.67;;;;;;;2.76;72.34;98592.59;1728531;80;21605;-61
2021/03/17 00:13:10;;;;;;;31.33;18.13;;;;;;;2.77;72.30;98585.03;1732109;80;21182;-64
2021/03/17 00:16:00;;;;;;;26.67;15.30;;;;;;;2.74;72.35;98586.00;1735118;80;21162;-61
2021/03/17 00:18:46;;;;;;;30.17;15.00;;;;;;;2.74;72.41;98583.80;1729263;80;21179;-59
2021/03/17 00:21:32;;;;;;;32.57;14.87;;;;;;;2.67;72.35;98581.83;1725703;80;21182;-61
2021/03/17 00:24:18;;;;;;;24.57;13.47;;;;;;;2.63;72.42;98582.87;1730930;80;22664;-60
2021/03/17 00:27:05;;;;;;;20.47;12.33;;;;;;;2.63;72.50;98585.08;1730468;80;21251;-61
2021/03/17 00:29:51;;;;;;;26.57;13.57;;;;;;;2.63;72.58;98582.87;1730514;80;21163;-63
2021/03/17 00:32:37;;;;;;;26.77;14.67;;;;;;;2.63;72.58;98579.76;1732670;80;21174;-61
2021/03/17 00:35:23;;;;;;;22.53;13.20;;;;;;;2.66;72.57;98582.29;1700957;81;21646;-61
2021/03/17 00:38:09;;;;;;;34.83;15.03;;;;;;;2.67;72.43;98585.81;1735363;80;21481;-64
2021/03/17 00:40:55;;;;;;;36.23;13.73;;;;;;;2.68;72.42;98584.90;1663561;84;21246;-63
2021/03/17 00:43:40;;;;;;;26.97;12.87;;;;;;;2.66;72.33;98589.39;1680331;83;21205;-59
2021/03/17 00:46:27;;;;;;;21.57;10.17;;;;;;;2.63;72.33;98587.73;1735104;80;21709;-61
2021/03/17 00:48:57;;;;;;;18.47;9.53;;;;;;;2.64;72.33;98584.58;1735931;80;21163;-62
2021/03/17 00:51:26;;;;;;;25.23;11.27;;;;;;;2.65;72.31;98591.64;1734007;80;21261;-60
2021/03/17 00:54:11;;;;;;;17.80;13.07;;;;;;;2.63;72.40;98585.08;1734001;80;21193;-61
2021/03/17 00:56:42;;;;;;;25.73;12.80;;;;;;;2.61;72.41;98577.61;1736633;80;21194;-61
2021/03/17 00:59:12;;;;;;;22.17;11.17;;;;;;;2.62;72.40;98583.80;1737609;80;21588;-63
2021/03/17 01:01:39;;;;;;;23.97;11.87;;;;;;;2.62;72.36;98578.48;1734090;80;21434;-59
2021/03/17 01:04:07;;;;;;;23.20;10.20;;;;;;;2.60;72.40;98575.00;1733839;80;21278;-63
2021/03/17 01:06:35;;;;;;;16.67;10.10;;;;;;;2.61;72.41;98568.77;1731662;80;21205;-61
2021/03/17 01:09:03;;;;;;;13.73;8.90;;;;;;;2.59;72.38;98569.28;1729294;80;21219;-62
2021/03/17 01:11:31;;;;;;;14.67;8.53;;;;;;;2.60;72.46;98571.02;1735986;80;21181;-60
2021/03/17 01:13:58;;;;;;;18.40;7.50;;;;;;;2.61;72.43;98567.44;1735145;80;21143;-58
2021/03/17 01:16:26;;;;;;;13.77;8.13;;;;;;;2.62;72.33;98573.17;1733512;80;21614;-61
2021/03/17 01:18:55;;;;;;;11.17;7.73;;;;;;;2.60;72.29;98574.55;1735394;80;22407;-59
2021/03/17 01:21:22;;;;;;;22.30;9.63;;;;;;;2.57;72.17;98575.09;1736083;80;21143;-57
2021/03/17 01:23:50;;;;;;;19.23;8.57;;;;;;;2.51;72.27;98576.65;1733305;80;21190;-63
2021/03/17 01:26:18;;;;;;;22.93;8.40;;;;;;;2.50;72.31;98573.13;1731825;80;21193;-59
2021/03/17 01:28:47;;;;;;;18.70;8.63;;;;;;;2.49;72.33;98570.05;1731894;80;21838;-63
2021/03/17 01:31:14;;;;;;;15.10;8.50;;;;;;;2.51;72.39;98572.20;1705946;80;21190;-63
2021/03/17 01:33:42;;;;;;;16.27;6.40;;;;;;;2.51;72.38;98570.00;1735121;80;21388;-60
2021/03/17 01:36:09;;;;;;;14.57;6.87;;;;;;;2.47;72.39;98566.58;1733737;80;21849;-63
2021/03/17 01:38:37;;;;;;;14.30;6.47;;;;;;;2.41;72.48;98562.81;1702139;82;21226;-57
2021/03/17 01:41:04;;;;;;;20.00;6.97;;;;;;;2.38;72.59;98566.92;1731712;80;21372;-61
2021/03/17 01:43:31;;;;;;;15.67;7.43;;;;;;;2.37;72.63;98563.85;1705542;82;22320;-60
2021/03/17 01:45:59;;;;;;;16.33;7.47;;;;;;;2.40;72.73;98561.07;1728372;80;21193;-60
2021/03/17 01:48:27;;;;;;;15.30;6.30;;;;;;;2.45;72.73;98557.81;1705342;82;21206;-60
2021/03/17 01:50:56;;;;;;;7.97;5.93;;;;;;;2.46;72.59;98554.70;1728775;80;21186;-60
2021/03/17 01:53:30;;;;;;;13.00;5.77;;;;;;;2.44;72.57;98557.86;1727822;80;21393;-59
2021/03/17 01:57:33;;;;;;;15.87;6.13;;;;;;;2.42;72.80;98547.28;1798515;78;26685;-64
2021/03/17 02:00:03;;;;;;;15.17;6.23;;;;;;;2.38;72.77;98552.31;1773675;79;21004;-61
2021/03/17 02:02:32;;;;;;;17.37;5.33;;;;;;;2.42;72.71;98557.91;1739036;81;21206;-60
2021/03/17 02:05:00;;;;;;;11.43;6.63;;;;;;;2.46;72.49;98558.69;1706261;82;21207;-62
2021/03/17 02:07:29;;;;;;;13.20;6.60;;;;;;;2.47;72.47;98559.06;1706309;82;21507;-60
2021/03/17 02:09:56;;;;;;;12.17;6.20;;;;;;;2.48;72.45;98556.82;1721741;81;21234;-62
2021/03/17 02:12:47;;;;;;;15.10;6.90;;;;;;;2.46;72.51;98565.33;1719928;82;21603;-61
2021/03/17 02:15:25;;;;;;;12.90;6.87;;;;;;;2.46;72.58;98567.98;1717033;82;21229;-60
2021/03/17 02:17:52;;;;;;;15.77;6.97;;;;;;;2.45;72.56;98567.57;1742287;80;21080;-64
2021/03/17 02:20:50;;;;;;;11.43;5.80;;;;;;;2.41;72.60;98560.61;1721150;81;21196;-62
2021/03/17 02:23:34;;;;;;;15.33;7.27;;;;;;;2.36;72.52;98559.92;1695363;81;21001;-62
2021/03/17 02:26:37;;;;;;;11.97;5.58;;;;;;;2.30;72.65;98561.46;1706783;82;21130;-62
2021/03/17 02:29:19;;;;;;;13.40;6.37;;;;;;;2.33;72.62;98556.03;1723415;81;22647;-63
2021/03/17 02:32:09;;;;;;;8.40;6.03;;;;;;;2.34;72.57;98551.13;1727981;81;21144;-63
2021/03/17 02:34:47;;;;;;;15.37;6.63;;;;;;;2.36;72.40;98544.85;1628999;82;21517;-63
2021/03/17 02:37:21;;;;;;;10.10;6.00;;;;;;;2.31;72.30;98553.42;1725594;81;21138;-63
2021/03/17 02:40:02;;;;;;;11.55;7.00;;;;;;;2.30;72.27;98553.49;1727169;82;21126;-62
2021/03/17 02:42:41;;;;;;;14.50;6.77;;;;;;;2.25;72.33;98554.50;1723541;82;21322;-62
2021/03/17 02:45:11;;;;;;;13.37;7.73;;;;;;;2.23;72.41;98560.31;1703159;81;21439;-63
2021/03/17 02:47:48;;;;;;;19.20;7.97;;;;;;;2.21;72.35;98548.88;1722622;81;21508;-64
2021/03/17 02:50:15;;;;;;;16.17;8.20;;;;;;;2.20;72.37;98544.52;1742370;80;21131;-64
2021/03/17 02:52:44;;;;;;;16.17;9.67;;;;;;;2.18;72.32;98549.00;1715656;82;21119;-62
2021/03/17 02:55:12;;;;;;;10.93;7.40;;;;;;;2.15;72.38;98549.55;1686622;83;21563;-61
2021/03/17 02:57:40;;;;;;;21.20;10.20;;;;;;;2.11;72.40;98544.81;1732504;81;21190;-62
2021/03/17 03:00:11;;;;;;;20.57;8.70;;;;;;;2.10;72.49;98551.05;1759909;79;21113;-62
2021/03/17 03:02:40;;;;;;;15.87;8.23;;;;;;;2.10;72.43;98549.72;1761943;79;21617;-62
2021/03/17 03:05:12;;;;;;;21.27;9.77;;;;;;;2.10;72.50;98545.73;1762367;79;21111;-64
2021/03/17 03:07:39;;;;;;;11.33;8.00;;;;;;;2.12;72.38;98551.00;1761534;79;21240;-61
2021/03/17 03:10:08;;;;;;;22.83;10.13;;;;;;;2.08;72.51;98548.89;1760357;79;21211;-62
2021/03/17 03:12:36;;;;;;;18.83;9.17;;;;;;;2.08;72.50;98546.69;1758874;79;21220;-63
2021/03/17 03:15:05;;;;;;;17.27;7.97;;;;;;;2.06;72.50;98553.83;1760328;80;21657;-63
2021/03/17 03:17:33;;;;;;;21.17;9.07;;;;;;;2.04;72.49;98555.70;1761433;79;21187;-63
2021/03/17 03:20:01;;;;;;;20.00;8.20;;;;;;;2.06;72.42;98549.84;1760038;79;22754;-63
2021/03/17 03:22:29;;;;;;;12.03;7.63;;;;;;;2.06;72.38;98544.09;1760678;79;21424;-63
2021/03/17 03:24:56;;;;;;;15.47;7.93;;;;;;;2.05;72.28;98546.78;1758443;79;21170;-64
2021/03/17 03:27:23;;;;;;;16.50;7.63;;;;;;;2.01;72.36;98543.84;1756591;79;21109;-62
2021/03/17 03:29:51;;;;;;;13.67;7.00;;;;;;;1.98;72.38;98545.26;1761880;79;21199;-62
2021/03/17 03:32:18;;;;;;;11.33;6.37;;;;;;;1.97;72.42;98540.41;1761880;79;21432;-62
2021/03/17 03:34:47;;;;;;;11.43;5.93;;;;;;;2.01;72.38;98539.86;1720746;81;21178;-63
2021/03/17 03:37:15;;;;;;;10.17;5.50;;;;;;;2.00;72.41;98540.77;1765701;79;20986;-62
2021/03/17 03:39:43;;;;;;;12.50;6.37;;;;;;;2.00;72.51;98547.41;1760386;79;21546;-64
2021/03/17 03:42:11;;;;;;;16.20;7.43;;;;;;;1.98;72.46;98547.45;1765630;79;21100;-63
2021/03/17 03:44:38;;;;;;;10.43;5.03;;;;;;;1.99;72.49;98543.88;1762186;79;21886;-64
2021/03/17 03:47:06;;;;;;;16.97;7.77;;;;;;;2.02;72.45;98549.10;1758713;79;21552;-64
2021/03/17 03:49:35;;;;;;;16.77;6.20;;;;;;;2.02;72.42;98546.45;1758603;80;21516;-63
2021/03/17 03:52:11;;;;;;;18.50;5.97;;;;;;;2.05;72.39;98550.31;1761666;79;21171;-62
2021/03/17 03:54:47;;;;;;;12.97;5.37;;;;;;;2.04;72.48;98549.89;1763073;79;21199;-63
2021/03/17 03:57:22;;;;;;;12.43;6.27;;;;;;;2.02;72.36;98550.43;1761590;79;21320;-64
2021/03/17 03:59:51;;;;;;;12.93;5.10;;;;;;;2.03;72.36;98545.53;1757295;79;23307;-62
2021/03/17 04:02:28;;;;;;;13.93;6.83;;;;;;;2.08;72.44;98545.37;1759912;79;21551;-65
2021/03/17 04:04:56;;;;;;;21.60;6.97;;;;;;;2.13;72.24;98547.39;1758770;79;21188;-63
2021/03/17 04:07:24;;;;;;;16.37;5.87;;;;;;;2.09;72.23;98537.36;1761076;79;21163;-62
2021/03/17 04:09:53;;;;;;;11.70;6.60;;;;;;;2.08;72.29;98539.60;1759136;79;21387;-60
2021/03/17 04:12:21;;;;;;;14.97;7.23;;;;;;;2.06;72.32;98542.76;1760100;79;21171;-62
2021/03/17 04:14:52;;;;;;;11.47;5.83;;;;;;;2.02;72.27;98534.97;1760539;79;21542;-63
2021/03/17 04:17:24;;;;;;;17.40;6.80;;;;;;;2.02;72.32;98539.81;1763643;79;21155;-61
2021/03/17 04:20:02;;;;;;;10.20;5.87;;;;;;;2.06;72.16;98543.22;1760923;79;21101;-63
2021/03/17 04:22:31;;;;;;;15.67;7.37;;;;;;;2.05;72.16;98542.80;1762521;79;21354;-63
2021/03/17 04:25:02;;;;;;;15.10;6.73;;;;;;;2.03;72.14;98540.69;1761303;79;21253;-63
2021/03/17 04:27:29;;;;;;;14.27;6.50;;;;;;;2.02;72.22;98541.59;1734661;79;21191;-63
2021/03/17 04:29:57;;;;;;;21.43;7.27;;;;;;;2.05;72.19;98534.84;1753807;79;21192;-64
2021/03/17 04:32:25;;;;;;;12.00;6.70;;;;;;;2.05;72.17;98538.36;1736950;80;21523;-63
2021/03/17 04:34:53;;;;;;;15.27;8.60;;;;;;;2.06;72.16;98537.91;1761369;79;21216;-63
2021/03/17 04:37:22;;;;;;;12.60;7.27;;;;;;;2.08;72.18;98533.42;1759552;79;21183;-63
2021/03/17 04:39:51;;;;;;;18.60;7.77;;;;;;;2.11;72.20;98533.33;1759164;79;21320;-63
2021/03/17 04:42:18;;;;;;;15.43;9.10;;;;;;;2.15;72.13;98533.62;1761314;79;21128;-63
2021/03/17 04:44:46;;;;;;;16.93;7.90;;;;;;;2.17;72.07;98535.77;1763711;79;21549;-63
2021/03/17 04:47:15;;;;;;;20.57;10.13;;;;;;;2.16;72.08;98530.92;1759585;79;21592;-62
2021/03/17 04:49:43;;;;;;;19.60;8.03;;;;;;;2.21;71.96;98527.63;1761839;79;21175;-63
2021/03/17 04:52:15;;;;;;;21.70;7.77;;;;;;;2.20;71.87;98525.92;1761880;79;21475;-62
2021/03/17 04:54:42;;;;;;;21.57;7.40;;;;;;;2.16;71.80;98522.08;1763884;79;22657;-63
2021/03/17 04:57:13;;;;;;;18.23;6.83;;;;;;;2.13;71.81;98524.38;1761988;80;21207;-61
2021/03/17 04:59:40;;;;;;;19.77;7.27;;;;;;;2.14;71.77;98521.27;1765190;79;21399;-63
2021/03/17 05:02:09;;;;;;;23.63;9.53;;;;;;;2.11;71.89;98526.23;1768975;80;21157;-62
2021/03/17 05:04:39;;;;;;;26.93;9.90;;;;;;;2.11;71.92;98522.71;1767850;80;21167;-62
2021/03/17 05:07:06;;;;;;;21.50;9.03;;;;;;;2.15;71.94;98525.66;1769785;79;21104;-63
2021/03/17 05:09:35;;;;;;;24.70;7.53;;;;;;;2.16;71.76;98524.28;1767773;79;21152;-62
2021/03/17 05:12:03;;;;;;;17.40;8.97;;;;;;;2.16;71.82;98522.95;1768789;79;22683;-61
2021/03/17 05:14:34;;;;;;;16.13;7.70;;;;;;;2.15;71.81;98521.67;1767756;79;21713;-63
2021/03/17 05:17:02;;;;;;;15.83;6.67;;;;;;;2.14;71.86;98518.15;1768599;79;21116;-63
2021/03/17 05:19:30;;;;;;;19.50;8.73;;;;;;;2.13;71.84;98519.06;1770331;79;21456;-61
2021/03/17 05:21:58;;;;;;;13.23;7.00;;;;;;;2.12;71.95;98528.44;1768662;79;21119;-62
2021/03/17 05:24:25;;;;;;;15.03;6.00;;;;;;;2.14;71.94;98517.28;1770979;79;21649;-62
2021/03/17 05:26:56;;;;;;;18.97;7.40;;;;;;;2.17;71.84;98521.17;1770030;79;21165;-63
2021/03/17 05:29:24;;;;;;;14.80;7.30;;;;;;;2.19;71.79;98522.86;1769105;80;21148;-63
2021/03/17 05:31:52;;;;;;;17.40;7.40;;;;;;;2.22;71.74;98520.54;1769886;79;21894;-63
2021/03/17 05:34:20;;;;;;;21.63;8.30;;;;;;;2.22;71.64;98524.52;1769929;79;21115;-63
2021/03/17 05:36:48;;;;;;;20.43;8.73;;;;;;;2.23;71.68;98515.64;1768749;79;21382;-63
2021/03/17 05:39:15;;;;;;;13.57;7.00;;;;;;;2.25;71.69;98527.08;1730824;81;21040;-62
2021/03/17 05:41:43;;;;;;;16.93;7.43;;;;;;;2.25;71.62;98519.98;1732830;80;21141;-64
2021/03/17 05:44:10;;;;;;;17.17;8.63;;;;;;;2.26;71.58;98523.52;1768353;79;21123;-63
2021/03/17 05:46:37;;;;;;;15.33;5.57;;;;;;;2.26;71.56;98516.41;1771016;79;21139;-61
2021/03/17 05:49:05;;;;;;;13.77;6.70;;;;;;;2.27;71.50;98531.43;1775832;79;20985;-63
2021/03/17 05:51:32;;;;;;;13.10;7.67;;;;;;;2.28;71.41;98528.31;1769247;79;21145;-64
2021/03/17 05:54:00;;;;;;;18.47;7.20;;;;;;;2.27;71.50;98526.12;1741448;79;21099;-64
2021/03/17 05:56:27;;;;;;;17.10;6.70;;;;;;;2.31;71.54;98530.84;1772361;79;21100;-63
2021/03/17 05:58:54;;;;;;;17.17;5.77;;;;;;;2.38;71.54;98531.53;1769878;79;21109;-63
2021/03/17 06:01:21;;;;;;;12.53;6.27;;;;;;;2.45;71.29;98537.89;1732427;81;21396;-63
2021/03/17 06:03:50;;;;;;;16.10;7.47;;;;;;;2.51;71.13;98527.51;1770234;79;20949;-63
2021/03/17 06:06:18;;;;;;;11.33;5.53;;;;;;;2.51;70.88;98531.48;1767974;79;21155;-63
2021/03/17 06:08:46;;;;;;;10.90;5.70;;;;;;;2.51;70.75;98543.44;1769057;79;21208;-62
2021/03/17 06:11:15;;;;;;;15.40;6.70;;;;;;;2.48;70.86;98536.90;1770988;79;21112;-62
2021/03/17 06:14:05;;;;;;;20.30;7.13;;;;;;;2.46;70.91;98534.33;1770481;79;21387;-64
2021/03/17 06:16:32;;;;;;;13.20;6.27;;;;;;;2.47;70.85;98543.13;1664524;84;22433;-63
2021/03/17 06:19:02;;;;;;;18.83;7.00;;;;;;;2.50;70.73;98539.05;1662320;84;21683;-62
2021/03/17 06:21:29;;;;;;;12.97;6.50;;;;;;;2.50;70.67;98543.91;1664219;84;22009;-60
2021/03/17 06:23:57;;;;;;;12.23;6.60;;;;;;;2.49;70.48;98529.34;1664435;84;21826;-63
2021/03/17 06:26:24;;;;;;;16.37;6.10;;;;;;;2.49;70.53;98528.02;1665596;84;21430;-64
2021/03/17 06:28:52;;;;;;;17.87;6.10;;;;;;;2.48;70.43;98535.57;1664139;84;21203;-62
2021/03/17 06:31:20;;;;;;;19.17;5.70;;;;;;;2.49;70.45;98526.22;1632797;85;21709;-62
2021/03/17 06:33:52;;;;;;;19.03;6.17;;;;;;;2.52;70.37;98526.59;1635309;85;21160;-63
2021/03/17 06:36:21;;;;;;;16.50;6.90;;;;;;;2.53;70.42;98526.54;1665668;84;21152;-63
2021/03/17 06:38:50;;;;;;;13.53;6.03;;;;;;;2.56;70.34;98530.39;1664210;84;21224;-62
2021/03/17 06:41:18;;;;;;;10.70;5.57;;;;;;;2.58;70.34;98521.92;1663415;84;21370;-62
2021/03/17 06:43:48;;;;;;;14.20;5.57;;;;;;;2.63;70.26;98525.76;1657938;84;21182;-62
2021/03/17 06:46:18;;;;;;;13.00;6.07;;;;;;;2.64;69.98;98524.80;1658012;84;21230;-62
2021/03/17 06:48:48;;;;;;;20.03;7.07;;;;;;;2.61;70.04;98529.79;1628052;86;21147;-62
2021/03/17 06:51:19;;;;;;;17.67;8.20;;;;;;;2.63;69.91;98526.62;1649514;85;21465;-64
2021/03/17 06:53:52;;;;;;;15.17;5.47;;;;;;;2.64;69.83;98527.46;1648512;85;21176;-63
2021/03/17 06:56:26;;;;;;;17.97;8.77;;;;;;;2.66;69.89;98534.92;1646149;85;21139;-63
2021/03/17 06:59:04;;;;;;;20.30;7.83;;;;;;;2.68;69.85;98524.25;1646022;85;21675;-63
2021/03/17 07:01:42;;;;;;;17.13;7.50;;;;;;;2.70;69.75;98521.95;1644864;85;21172;-63
2021/03/17 07:04:25;;;;;;;20.90;6.80;;;;;;;2.74;69.87;98530.20;1645415;85;22326;-63
2021/03/17 07:07:02;;;;;;;13.97;7.10;;;;;;;2.78;69.66;98533.17;1655946;84;21147;-63
2021/03/17 07:09:31;;;;;;;16.57;6.90;;;;;;;2.79;69.56;98538.89;1658777;84;21147;-61
2021/03/17 07:12:07;;;;;;;19.17;8.77;;;;;;;2.79;69.61;98543.34;1660623;84;21427;-63
2021/03/17 07:14:42;;;;;;;20.43;8.60;;;;;;;2.82;69.66;98533.91;1654431;84;21576;-62
2021/03/17 07:17:27;;;;;;;23.13;8.77;;;;;;;2.88;69.70;98529.26;1645373;85;21638;-62
2021/03/17 07:19:56;;;;;;;17.82;8.73;;;;;;;2.89;69.42;98524.31;1627623;86;21193;-62
2021/03/17 07:22:23;;;;;;;19.87;8.57;;;;;;;2.93;69.30;98531.73;1659255;84;21207;-62
2021/03/17 07:24:56;;;;;;;19.33;8.30;;;;;;;2.94;69.39;98522.84;1657222;84;22147;-62
2021/03/17 07:27:26;;;;;;;16.57;6.83;;;;;;;2.97;68.95;98520.08;1658731;84;21197;-62
2021/03/17 07:30:03;;;;;;;21.37;7.83;;;;;;;2.99;68.96;98517.74;1656481;84;21631;-62
2021/03/17 07:32:58;;;;;;;17.50;8.90;;;;;;;3.03;68.72;98519.38;1654605;84;21571;-61
2021/03/17 07:35:32;;;;;;;19.57;9.30;;;;;;;3.02;68.54;98520.30;1630434;86;21243;-61
2021/03/17 07:38:13;;;;;;;26.87;10.08;;;;;;;3.02;68.57;98518.97;1625904;86;21575;-61
2021/03/17 07:40:44;;;;;;;30.43;12.83;;;;;;;2.99;68.62;98512.89;1647698;85;21196;-62
2021/03/17 07:43:13;;;;;;;28.17;12.27;;;;;;;3.08;68.61;98514.34;1626543;86;21706;-62
2021/03/17 07:45:41;;;;;;;25.23;11.37;;;;;;;3.15;68.45;98521.18;1630758;86;21170;-62
2021/03/17 07:48:11;;;;;;;25.43;10.23;;;;;;;3.21;68.43;98528.92;1630933;86;21265;-61
2021/03/17 07:50:41;;;;;;;20.53;10.10;;;;;;;3.27;68.13;98523.36;1626300;86;21503;-62
2021/03/17 07:53:17;;;;;;;22.07;10.93;;;;;;;3.32;67.97;98525.36;1629482;86;21889;-63
2021/03/17 07:55:45;;;;;;;19.13;9.80;;;;;;;3.36;67.69;98522.54;1626806;86;21308;-63
2021/03/17 07:58:13;;;;;;;22.00;9.97;;;;;;;3.39;67.53;98522.89;1658847;84;21186;-63
2021/03/17 08:00:42;;;;;;;16.60;10.70;;;;;;;3.41;67.14;98526.34;1658994;84;21154;-63
2021/03/17 08:03:14;;;;;;;21.87;9.13;;;;;;;3.39;66.82;98525.09;1641635;85;21705;-62
2021/03/17 08:05:42;;;;;;;16.37;8.63;;;;;;;3.38;66.81;98523.36;1659169;84;21222;-62
2021/03/17 08:08:10;;;;;;;23.63;10.00;;;;;;;3.38;67.00;98518.03;1659571;84;22129;-62
2021/03/17 08:10:41;;;;;;;21.20;10.73;;;;;;;3.43;67.03;98521.83;1658778;84;21503;-63
2021/03/17 08:13:09;;;;;;;15.43;7.60;;;;;;;3.47;66.94;98518.60;1630357;84;21247;-63
2021/03/17 08:15:38;;;;;;;17.40;10.40;;;;;;;3.47;66.65;98519.47;1654680;84;21162;-62
2021/03/17 08:18:34;;;;;;;16.53;8.40;;;;;;;3.47;66.87;98518.14;1652075;85;21877;-62
2021/03/17 08:21:05;;;;;;;16.10;8.40;;;;;;;3.49;66.60;98505.62;1650168;85;22755;-62
2021/03/17 08:23:39;;;;;;;17.77;9.50;;;;;;;3.51;66.49;98511.75;1649398;84;21173;-61
2021/03/17 08:26:13;;;;;;;15.60;7.70;;;;;;;3.53;66.50;98513.03;1647588;85;21144;-62
2021/03/17 08:28:51;;;;;;;20.00;8.87;;;;;;;3.54;66.53;98510.31;1652990;84;21124;-62
2021/03/17 08:31:42;;;;;;;15.17;8.53;;;;;;;3.58;66.22;98505.26;1623214;86;21152;-62
2021/03/17 08:34:23;;;;;;;20.60;9.63;;;;;;;3.60;66.28;98507.41;1641224;85;22273;-63
2021/03/17 08:36:55;;;;;;;15.77;8.67;;;;;;;3.60;66.34;98506.07;1641197;86;21464;-63
2021/03/17 08:39:39;;;;;;;16.33;8.43;;;;;;;3.63;66.52;98501.97;1639564;85;21524;-61
2021/03/17 08:42:29;;;;;;;15.03;7.35;;;;;;;3.68;66.31;98510.62;1642277;85;21583;-62
2021/03/17 08:45:00;;;;;;;20.70;9.20;;;;;;;3.70;66.25;98513.23;1552180;86;21328;-62
2021/03/17 08:47:33;;;;;;;18.70;7.17;;;;;;;3.70;66.34;98510.56;1635896;85;21238;-61
2021/03/17 08:50:20;;;;;;;17.73;8.03;;;;;;;3.70;66.01;98508.77;1643033;85;21629;-62
2021/03/17 08:52:49;;;;;;;18.80;10.70;;;;;;;3.69;66.15;98515.48;1643313;85;21472;-63
2021/03/17 08:55:22;;;;;;;17.37;10.33;;;;;;;3.66;66.19;98510.27;1652427;84;21167;-61
2021/03/17 08:58:03;;;;;;;22.17;9.17;;;;;;;3.66;66.40;98517.79;1648329;85;21140;-61
2021/03/17 09:00:50;;;;;;;24.50;9.10;;;;;;;3.68;66.56;98515.08;1653340;85;21171;-62
2021/03/17 09:03:35;;;;;;;15.27;9.03;;;;;;;3.70;66.38;98507.44;1650413;85;21147;-62
2021/03/17 09:06:22;;;;;;;17.37;8.70;;;;;;;3.74;66.56;98513.52;1648589;84;21178;-63
2021/03/17 09:08:58;;;;;;;21.03;8.13;;;;;;;3.87;66.70;98512.54;1649630;84;21124;-62
2021/03/17 09:11:37;;;;;;;19.63;8.93;;;;;;;4.00;66.27;98502.64;1652282;84;21176;-61
2021/03/17 09:14:06;;;;;;;19.60;7.93;;;;;;;4.06;66.12;98502.41;1649107;85;21672;-61
2021/03/17 09:16:36;;;;;;;20.17;8.73;;;;;;;4.11;65.68;98505.73;1650742;84;21227;-63
2021/03/17 09:19:11;;;;;;;21.17;9.80;;;;;;;4.10;65.02;98498.67;1580286;86;21737;-62
2021/03/17 09:21:41;;;;;;;17.87;9.10;;;;;;;4.09;65.17;98506.72;1580190;88;21246;-62
2021/03/17 09:24:31;;;;;;;18.60;9.13;;;;;;;4.13;65.37;98517.66;1553409;90;21172;-63
2021/03/17 09:27:01;;;;;;;22.90;10.23;;;;;;;4.19;65.30;98514.27;1581034;88;21404;-63
2021/03/17 09:29:28;;;;;;;16.53;8.40;;;;;;;4.27;65.36;98513.07;1582772;88;21178;-62
2021/03/17 09:31:56;;;;;;;18.63;7.47;;;;;;;4.33;64.88;98515.03;1583860;88;21242;-62
2021/03/17 09:34:31;;;;;;;15.80;6.30;;;;;;;4.38;64.06;98521.48;1581879;88;21246;-62
2021/03/17 09:37:04;;;;;;;13.70;7.93;;;;;;;4.36;64.18;98518.88;1555617;90;21212;-62
2021/03/17 09:39:35;;;;;;;13.10;7.27;;;;;;;4.37;64.25;98529.06;1554174;90;21454;-61
2021/03/17 09:42:04;;;;;;;13.83;8.00;;;;;;;4.37;63.82;98523.74;1556139;90;21185;-62
2021/03/17 09:44:31;;;;;;;27.23;8.03;;;;;;;4.32;64.10;98524.41;1554109;90;21152;-62
2021/03/17 09:46:59;;;;;;;13.83;5.77;;;;;;;4.34;64.33;98522.06;1554180;90;21762;-61
2021/03/17 09:49:28;;;;;;;17.17;7.33;;;;;;;4.40;64.15;98524.48;1556311;90;21142;-61
2021/03/17 09:52:01;;;;;;;18.33;8.07;;;;;;;4.45;64.05;98527.81;1554310;90;21149;-62
2021/03/17 09:54:31;;;;;;;19.57;7.63;;;;;;;4.46;64.19;98530.01;1556988;90;21508;-61
2021/03/17 09:57:05;;;;;;;17.67;8.23;;;;;;;4.47;64.37;98531.28;1559533;90;21685;-60
2021/03/17 09:59:41;;;;;;;27.33;11.50;;;;;;;4.48;64.26;98532.16;1556116;90;21221;-61
2021/03/17 10:02:24;;;;;;;23.97;9.43;;;;;;;4.51;64.21;98522.67;1860063;74;27742;-62
2021/03/17 10:04:53;;;;;;;23.50;10.13;;;;;;;4.45;64.13;98527.81;1831202;75;21149;-63
2021/03/17 10:07:25;;;;;;;18.10;8.53;;;;;;;4.42;64.23;98539.92;1830563;75;21362;-62
2021/03/17 10:09:54;;;;;;;19.40;9.40;;;;;;;4.40;63.82;98534.28;1789210;78;21056;-62
2021/03/17 10:12:26;;;;;;;16.23;7.40;;;;;;;4.34;64.25;98531.39;1798642;78;21154;-62
2021/03/17 10:14:57;;;;;;;9.17;5.87;;;;;;;4.33;64.38;98528.35;1795966;77;21018;-62
2021/03/17 10:17:27;;;;;;;15.03;8.07;;;;;;;4.33;64.30;98525.69;1768370;78;21056;-62
2021/03/17 10:19:59;;;;;;;27.40;10.33;;;;;;;4.31;64.24;98523.55;1764204;78;22258;-62
2021/03/17 10:22:28;;;;;;;15.10;8.70;;;;;;;4.32;64.37;98519.09;1799524;77;21199;-62
2021/03/17 10:24:58;;;;;;;20.77;8.17;;;;;;;4.38;64.54;98519.69;1795954;77;21701;-62
2021/03/17 10:27:39;;;;;;;15.57;6.50;;;;;;;4.49;64.72;98512.57;1789659;79;21182;-63
2021/03/17 10:30:16;;;;;;;19.97;9.27;;;;;;;4.60;64.31;98516.94;1793873;77;21177;-62
2021/03/17 10:32:47;;;;;;;28.10;11.07;;;;;;;4.65;64.38;98514.96;1792218;79;21910;-62
2021/03/17 10:35:16;;;;;;;23.67;9.73;;;;;;;4.69;64.31;98513.88;1787660;79;21162;-62
2021/03/17 10:37:46;;;;;;;16.80;6.67;;;;;;;4.72;63.95;98516.41;1787459;79;21111;-62
2021/03/17 10:40:17;;;;;;;21.33;8.40;;;;;;;4.79;63.33;98513.00;1790333;77;21693;-62
2021/03/17 10:42:49;;;;;;;13.57;6.43;;;;;;;4.79;63.00;98521.00;1787318;79;21639;-60
2021/03/17 10:45:23;;;;;;;20.33;8.90;;;;;;;4.73;62.42;98515.95;1768197;78;21633;-62
2021/03/17 10:47:50;;;;;;;17.90;6.40;;;;;;;4.65;62.72;98508.77;1766802;78;21118;-64
2021/03/17 10:50:33;;;;;;;21.93;9.40;;;;;;;4.65;62.89;98516.76;1775013;78;21122;-63
2021/03/17 10:53:01;;;;;;;16.90;7.43;;;;;;;4.67;62.83;98516.23;1789820;79;21123;-62
2021/03/17 10:55:30;;;;;;;14.53;5.37;;;;;;;4.67;62.95;98517.56;1790493;77;21598;-62
2021/03/17 10:58:17;;;;;;;14.27;5.97;;;;;;;4.66;62.47;98515.36;1792237;77;21405;-61
2021/03/17 11:00:46;;;;;;;19.33;5.33;;;;;;;4.62;62.37;98519.08;1789236;77;21447;-62
2021/03/17 11:03:39;;;;;;;13.97;4.30;;;;;;;4.59;62.55;98519.23;1791407;79;21167;-63
2021/03/17 11:06:16;;;;;;;20.63;6.20;;;;;;;4.54;62.72;98514.55;1790128;77;21173;-62
2021/03/17 11:08:46;;;;;;;13.57;5.20;;;;;;;4.51;62.77;98515.55;1790276;79;21179;-62
2021/03/17 11:11:13;;;;;;;22.53;6.57;;;;;;;4.49;63.00;98508.57;1785701;79;21209;-63
2021/03/17 11:13:43;;;;;;;11.90;5.23;;;;;;;4.49;63.13;98509.44;1788100;79;21202;-64
2021/03/17 11:16:14;;;;;;;10.93;4.97;;;;;;;4.49;63.47;98508.11;1790985;79;21091;-64
2021/03/17 11:18:48;;;;;;;12.90;5.50;;;;;;;4.50;63.69;98513.84;1791256;79;21122;-62
2021/03/17 11:21:36;;;;;;;14.73;4.23;;;;;;;4.50;63.86;98511.64;1792194;77;21384;-63
2021/03/17 11:24:17;;;;;;;13.43;5.10;;;;;;;4.53;63.96;98512.35;1793189;79;20984;-63
2021/03/17 11:26:45;;;;;;;16.50;5.83;;;;;;;4.58;63.65;98509.97;1791989;79;21448;-64
2021/03/17 11:29:19;;;;;;;10.30;3.87;;;;;;;4.60;63.56;98512.95;1789770;79;21079;-64
2021/03/17 11:31:49;;;;;;;7.80;3.53;;;;;;;4.62;63.47;98507.55;1787501;79;21108;-62
2021/03/17 11:34:18;;;;;;;11.47;2.63;;;;;;;4.62;63.72;98520.41;1795559;77;21095;-62
2021/03/17 11:36:46;;;;;;;11.60;2.93;;;;;;;4.64;63.62;98515.02;1790538;79;21452;-63
2021/03/17 11:39:16;;;;;;;12.43;4.23;;;;;;;4.64;63.69;98512.36;1788823;77;21158;-62
2021/03/17 11:41:45;;;;;;;7.00;4.20;;;;;;;4.63;63.52;98510.62;1791515;79;20996;-62
2021/03/17 11:44:17;;;;;;;9.97;3.57;;;;;;;4.62;62.86;98511.09;1789571;79;21388;-62
2021/03/17 11:46:44;;;;;;;8.73;3.13;;;;;;;4.60;62.79;98514.28;1789688;79;21093;-62
2021/03/17 11:49:14;;;;;;;5.97;2.60;;;;;;;4.59;62.70;98509.05;1790964;78;22319;-63
2021/03/17 11:51:43;;;;;;;4.20;2.30;;;;;;;4.55;62.53;98508.30;1778786;78;21434;-62
2021/03/17 11:54:10;;;;;;;9.23;3.10;;;;;;;4.52;62.71;98514.61;1764379;78;21964;-62
2021/03/17 11:56:37;;;;;;;10.97;3.87;;;;;;;4.51;62.80;98516.88;1795432;78;21095;-62
2021/03/17 11:59:05;;;;;;;4.83;2.90;;;;;;;4.51;62.89;98513.34;1775313;78;20985;-63